Time;durP1;ratioP1;P1;durP2;ratioP2;P2;SDS_P1;SDS_P2;PMS_P1;PMS_P2;Temp;Humidity;BMP_temperature;BMP_pressure;BME280_temperature;BME280_humidity;BME280_pressure;Samples;Min_cycle;Max_cycle;Signal;HPM_P1;HPM_P2
2024/01/13 00:01:05;;;;;;;3.53;1.67;;;19.70;34.10;;;;;;4994759;28;20484;-60
2024/01/13 00:03:31;;;;;;;3.22;1.60;;;19.70;34.10;;;;;;4994060;28;20026;-60
2024/01/13 00:05:57;;;;;;;3.28;2.05;;;19.70;34.10;;;;;;5000883;28;20497;-60
2024/01/13 00:08:22;;;;;;;2.65;1.80;;;19.70;34.10;;;;;;4996433;28;20369;-61
2024/01/13 00:10:48;;;;;;;1.75;1.20;;;19.70;34.10;;;;;;4998373;28;20058;-60
2024/01/13 00:13:15;;;;;;;2.85;1.80;;;19.70;34.10;;;;;;5001069;28;20113;-60
2024/01/13 00:15:41;;;;;;;2.65;1.73;;;19.60;34.10;;;;;;4995330;28;20101;-60
2024/01/13 00:18:06;;;;;;;3.25;1.85;;;19.70;34.10;;;;;;4994082;28;20173;-60
2024/01/13 00:20:32;;;;;;;3.00;1.85;;;19.70;34.10;;;;;;4999315;28;20050;-59
2024/01/13 00:22:58;;;;;;;3.22;1.63;;;19.70;34.10;;;;;;4998058;28;20120;-61
2024/01/13 00:25:24;;;;;;;2.00;1.50;;;19.60;34.10;;;;;;5001666;28;20481;-59
2024/01/13 00:27:49;;;;;;;2.22;1.77;;;19.60;34.10;;;;;;5002140;28;20117;-59
2024/01/13 00:30:15;;;;;;;2.30;1.38;;;19.60;34.10;;;;;;4996951;28;20040;-59
2024/01/13 00:32:41;;;;;;;1.67;1.50;;;19.60;34.10;;;;;;4993824;28;20019;-59
2024/01/13 00:35:07;;;;;;;2.50;1.75;;;19.60;34.10;;;;;;4999848;28;20068;-59
2024/01/13 00:37:33;;;;;;;2.35;1.60;;;19.60;34.10;;;;;;5003264;28;20363;-60
2024/01/13 00:39:59;;;;;;;2.35;1.63;;;19.60;34.10;;;;;;5004762;28;20029;-60
2024/01/13 00:42:24;;;;;;;2.00;1.50;;;19.60;34.00;;;;;;5004076;28;20052;-59
2024/01/13 00:44:50;;;;;;;2.45;1.73;;;19.60;34.10;;;;;;5003068;28;20076;-59
2024/01/13 00:47:16;;;;;;;2.10;1.40;;;19.60;34.10;;;;;;4998209;28;21282;-60
2024/01/13 00:49:42;;;;;;;2.58;1.80;;;19.60;34.10;;;;;;5002163;28;20033;-60
2024/01/13 00:52:09;;;;;;;2.95;1.80;;;19.60;34.10;;;;;;5001300;28;20042;-59
2024/01/13 00:54:35;;;;;;;2.40;1.77;;;19.60;34.10;;;;;;5002006;28;20330;-60
2024/01/13 00:57:01;;;;;;;2.38;1.83;;;19.60;34.10;;;;;;5002557;28;20033;-59
2024/01/13 00:59:27;;;;;;;3.25;2.00;;;19.60;34.10;;;;;;5007520;28;20072;-60
2024/01/13 01:01:52;;;;;;;2.75;1.92;;;19.60;34.10;;;;;;4997349;28;20053;-61
2024/01/13 01:04:18;;;;;;;2.65;1.63;;;19.60;34.10;;;;;;4999632;28;20088;-60
2024/01/13 01:06:44;;;;;;;1.90;1.70;;;19.60;34.10;;;;;;5005132;28;20041;-59
2024/01/13 01:09:09;;;;;;;2.63;1.83;;;19.60;34.10;;;;;;5001363;28;20026;-60
2024/01/13 01:11:35;;;;;;;2.35;1.83;;;19.60;34.10;;;;;;5000079;28;20504;-60
2024/01/13 01:14:02;;;;;;;1.92;1.67;;;19.60;34.10;;;;;;4998309;28;20050;-59
2024/01/13 01:16:28;;;;;;;2.38;1.77;;;19.50;34.10;;;;;;5001531;28;20069;-59
2024/01/13 01:18:53;;;;;;;2.38;1.67;;;19.50;34.10;;;;;;5002069;28;20209;-61
2024/01/13 01:21:19;;;;;;;2.40;1.75;;;19.50;34.10;;;;;;5005063;28;20034;-59
2024/01/13 01:23:46;;;;;;;2.40;1.80;;;19.50;34.10;;;;;;4996524;28;20508;-60
2024/01/13 01:26:12;;;;;;;2.70;1.90;;;19.50;34.10;;;;;;4997247;28;20113;-59
2024/01/13 01:28:38;;;;;;;2.60;2.00;;;19.50;34.10;;;;;;5004007;28;20030;-59
2024/01/13 01:31:04;;;;;;;2.00;1.63;;;19.50;34.10;;;;;;4999537;28;20417;-60
2024/01/13 01:33:30;;;;;;;3.13;1.92;;;19.50;34.10;;;;;;4997335;28;20026;-59
2024/01/13 01:35:56;;;;;;;1.73;1.55;;;19.50;34.10;;;;;;4996680;28;20030;-60
2024/01/13 01:38:21;;;;;;;2.42;1.92;;;19.50;34.10;;;;;;4999142;28;20026;-59
2024/01/13 01:40:53;;;;;;;2.15;1.60;;;19.50;34.10;;;;;;5001104;28;20053;-60
2024/01/13 01:43:18;;;;;;;2.15;1.88;;;19.50;34.10;;;;;;5004258;28;20032;-60
2024/01/13 01:45:45;;;;;;;2.40;1.98;;;19.50;34.20;;;;;;5001869;28;20340;-60
2024/01/13 01:48:10;;;;;;;2.25;1.70;;;19.50;34.10;;;;;;4999088;28;20053;-61
2024/01/13 01:50:37;;;;;;;2.08;1.70;;;19.50;34.20;;;;;;5005888;28;20037;-60
2024/01/13 01:53:02;;;;;;;2.40;2.03;;;19.40;34.10;;;;;;5002559;28;20023;-59
2024/01/13 01:55:29;;;;;;;2.83;1.90;;;19.50;34.20;;;;;;4997670;28;20350;-59
2024/01/13 01:57:58;;;;;;;2.20;1.88;;;19.50;34.20;;;;;;4996198;28;20040;-60
2024/01/13 02:00:24;;;;;;;2.70;1.92;;;19.40;34.10;;;;;;4996267;28;20421;-60
2024/01/13 02:02:50;;;;;;;2.65;1.98;;;19.50;34.20;;;;;;4999458;28;20030;-59
2024/01/13 02:05:16;;;;;;;2.30;1.77;;;19.40;34.10;;;;;;4997551;28;20354;-59
2024/01/13 02:07:43;;;;;;;2.45;1.90;;;19.40;34.10;;;;;;4998173;28;20022;-59
2024/01/13 02:10:09;;;;;;;2.45;1.90;;;19.40;34.10;;;;;;4998357;28;20033;-59
2024/01/13 02:12:36;;;;;;;2.53;1.95;;;19.40;34.10;;;;;;4996641;28;20034;-58
2024/01/13 02:15:01;;;;;;;2.35;1.88;;;19.40;34.10;;;;;;4998204;28;20046;-59
2024/01/13 02:17:27;;;;;;;1.90;1.65;;;19.40;34.10;;;;;;4997656;28;20065;-60
2024/01/13 02:19:53;;;;;;;2.30;1.90;;;19.40;34.10;;;;;;5001040;28;20056;-59
2024/01/13 02:22:19;;;;;;;2.45;1.80;;;19.40;34.20;;;;;;4995369;28;20049;-58
2024/01/13 02:24:45;;;;;;;2.10;1.67;;;19.40;34.20;;;;;;4994969;28;20425;-59
2024/01/13 02:27:11;;;;;;;2.35;1.90;;;19.40;34.10;;;;;;4995139;28;20505;-60
2024/01/13 02:29:37;;;;;;;1.95;1.50;;;19.40;34.10;;;;;;5000146;28;20105;-61
2024/01/13 02:32:03;;;;;;;1.85;1.58;;;19.40;34.10;;;;;;4996689;28;20033;-59
2024/01/13 02:34:28;;;;;;;1.80;1.60;;;19.40;34.10;;;;;;4996965;28;20109;-59
2024/01/13 02:36:54;;;;;;;2.00;1.55;;;19.40;34.20;;;;;;4998110;28;21542;-59
2024/01/13 02:39:20;;;;;;;1.75;1.38;;;19.40;34.20;;;;;;4998150;28;20393;-60
2024/01/13 02:41:46;;;;;;;2.28;1.70;;;19.40;34.10;;;;;;4997490;28;20089;-59
2024/01/13 02:44:11;;;;;;;2.42;1.85;;;19.40;34.20;;;;;;4994601;28;20100;-58
2024/01/13 02:46:37;;;;;;;2.03;1.42;;;19.40;34.20;;;;;;4995108;28;20090;-58
2024/01/13 02:49:04;;;;;;;1.70;1.35;;;19.40;34.20;;;;;;4997180;28;20460;-61
2024/01/13 02:51:30;;;;;;;1.77;1.33;;;19.40;34.20;;;;;;4997505;28;20028;-59
2024/01/13 02:53:56;;;;;;;1.80;1.30;;;19.30;34.20;;;;;;4998414;28;20432;-60
2024/01/13 02:56:22;;;;;;;1.63;1.40;;;19.30;34.20;;;;;;4998456;28;20464;-59
2024/01/13 02:58:47;;;;;;;1.50;1.20;;;19.40;34.20;;;;;;4995363;28;20126;-60
2024/01/13 03:01:14;;;;;;;2.08;1.67;;;19.30;34.20;;;;;;4993289;28;20065;-60
2024/01/13 03:03:40;;;;;;;1.95;1.50;;;19.30;34.20;;;;;;4992835;28;20442;-60
2024/01/13 03:06:06;;;;;;;2.00;1.55;;;19.30;34.20;;;;;;4994547;28;20109;-59
2024/01/13 03:08:32;;;;;;;1.77;1.27;;;19.30;34.20;;;;;;5000301;28;20465;-61
2024/01/13 03:10:58;;;;;;;1.73;1.40;;;19.30;34.20;;;;;;5001112;28;20053;-60
2024/01/13 03:13:23;;;;;;;2.00;1.80;;;19.30;34.20;;;;;;4997720;28;20541;-59
2024/01/13 03:15:49;;;;;;;1.65;1.55;;;19.30;34.20;;;;;;4997841;28;20125;-60
2024/01/13 03:18:15;;;;;;;1.77;1.40;;;19.30;34.20;;;;;;4997431;28;20097;-58
2024/01/13 03:20:41;;;;;;;1.90;1.30;;;19.30;34.20;;;;;;4997468;28;20099;-58
2024/01/13 03:23:06;;;;;;;1.60;1.20;;;19.30;34.20;;;;;;4996977;28;20030;-60
2024/01/13 03:25:32;;;;;;;1.67;1.20;;;19.30;34.20;;;;;;4996943;28;20434;-60
2024/01/13 03:27:58;;;;;;;1.77;1.30;;;19.30;34.20;;;;;;4993554;28;20022;-61
2024/01/13 03:30:24;;;;;;;1.95;1.17;;;19.30;34.20;;;;;;4996179;28;20130;-61
2024/01/13 03:32:49;;;;;;;1.35;1.10;;;19.30;34.20;;;;;;4998790;28;20057;-59
2024/01/13 03:35:15;;;;;;;2.10;1.40;;;19.30;34.20;;;;;;4994617;28;20061;-60
2024/01/13 03:37:41;;;;;;;2.17;1.60;;;19.30;34.20;;;;;;4994145;28;20089;-59
2024/01/13 03:40:07;;;;;;;1.98;1.30;;;19.30;34.20;;;;;;4998149;28;20034;-59
2024/01/13 03:42:33;;;;;;;1.80;1.55;;;19.20;34.20;;;;;;4997109;28;20446;-60
2024/01/13 03:44:59;;;;;;;2.15;1.40;;;19.20;34.20;;;;;;4999215;28;20025;-59
2024/01/13 03:47:24;;;;;;;1.33;1.20;;;19.20;34.20;;;;;;4996271;28;20033;-59
2024/01/13 03:49:50;;;;;;;1.30;1.20;;;19.20;34.20;;;;;;4998650;28;20109;-60
2024/01/13 03:52:16;;;;;;;1.83;1.60;;;19.20;34.30;;;;;;4999072;28;20342;-59
2024/01/13 03:54:42;;;;;;;1.42;1.33;;;19.20;34.30;;;;;;4996474;28;20344;-59
2024/01/13 03:57:07;;;;;;;2.10;1.25;;;19.20;34.30;;;;;;4995799;28;20023;-60
2024/01/13 03:59:33;;;;;;;1.60;1.27;;;19.20;34.30;;;;;;4997671;28;20034;-59
2024/01/13 04:01:59;;;;;;;1.77;1.48;;;19.20;34.30;;;;;;4995961;28;20100;-60
2024/01/13 04:04:25;;;;;;;1.95;1.50;;;19.30;34.30;;;;;;4976539;28;20050;-59
2024/01/13 04:06:51;;;;;;;1.55;1.30;;;19.20;34.30;;;;;;4998555;28;20022;-58
2024/01/13 04:09:16;;;;;;;1.83;1.45;;;19.20;34.30;;;;;;4997983;28;20101;-57
2024/01/13 04:11:42;;;;;;;1.75;1.63;;;19.20;34.30;;;;;;4996031;28;20049;-59
2024/01/13 04:14:08;;;;;;;1.92;1.73;;;19.20;34.30;;;;;;4993045;28;20048;-59
2024/01/13 04:16:34;;;;;;;1.55;1.45;;;19.20;34.30;;;;;;4997105;28;20038;-59
2024/01/13 04:18:59;;;;;;;1.75;1.63;;;19.20;34.30;;;;;;4997257;28;20034;-60
2024/01/13 04:21:25;;;;;;;2.10;1.80;;;19.20;34.40;;;;;;4997130;28;20038;-58
2024/01/13 04:23:51;;;;;;;1.55;1.45;;;19.20;34.40;;;;;;4998308;28;20026;-59
2024/01/13 04:26:21;;;;;;;2.10;1.70;;;19.20;34.40;;;;;;4995815;28;20072;-59
2024/01/13 04:28:46;;;;;;;1.45;1.30;;;19.20;34.40;;;;;;4994932;28;20421;-58
2024/01/13 04:31:12;;;;;;;2.00;1.80;;;19.20;34.40;;;;;;4993862;28;20045;-58
2024/01/13 04:33:38;;;;;;;2.00;1.40;;;19.20;34.40;;;;;;4993746;28;20088;-59
2024/01/13 04:36:04;;;;;;;1.90;1.60;;;19.20;34.40;;;;;;4996477;28;20062;-58
2024/01/13 04:38:30;;;;;;;1.48;1.38;;;19.20;34.40;;;;;;4994362;28;20034;-59
2024/01/13 04:40:56;;;;;;;1.42;1.30;;;19.20;34.50;;;;;;4994937;28;20042;-60
2024/01/13 04:43:22;;;;;;;2.08;1.60;;;19.20;34.50;;;;;;4996119;28;20361;-60
2024/01/13 04:45:48;;;;;;;1.75;1.38;;;19.10;34.40;;;;;;4993820;28;20108;-57
2024/01/13 04:48:18;;;;;;;1.65;1.52;;;19.10;34.40;;;;;;4996700;28;20411;-58
2024/01/13 04:50:44;;;;;;;2.55;1.52;;;19.10;34.40;;;;;;4993873;28;20066;-58
2024/01/13 04:53:10;;;;;;;3.00;1.45;;;19.10;34.40;;;;;;4996909;28;20022;-58
2024/01/13 04:55:36;;;;;;;1.85;1.33;;;19.10;34.50;;;;;;4999144;28;20021;-58
2024/01/13 04:58:02;;;;;;;2.00;1.20;;;19.10;34.50;;;;;;4998923;28;20034;-58
2024/01/13 05:00:28;;;;;;;1.45;1.20;;;19.10;34.50;;;;;;4995488;28;20458;-59
2024/01/13 05:02:54;;;;;;;1.90;1.42;;;19.10;34.50;;;;;;4995990;28;20034;-59
2024/01/13 05:05:19;;;;;;;1.42;1.15;;;19.10;34.50;;;;;;4995532;28;20164;-58
2024/01/13 05:07:45;;;;;;;1.40;1.25;;;19.10;34.50;;;;;;4994010;28;20022;-59
2024/01/13 05:10:11;;;;;;;1.85;1.50;;;19.10;34.50;;;;;;4994954;28;20105;-59
2024/01/13 05:12:37;;;;;;;1.90;1.33;;;19.10;34.50;;;;;;4994420;28;20361;-60
2024/01/13 05:15:03;;;;;;;1.50;1.30;;;19.10;34.60;;;;;;4997989;28;20043;-59
2024/01/13 05:17:29;;;;;;;1.35;1.23;;;19.10;34.60;;;;;;5000199;28;20033;-59
2024/01/13 05:19:55;;;;;;;1.35;1.25;;;19.10;34.60;;;;;;5000040;28;20022;-59
2024/01/13 05:22:21;;;;;;;1.17;1.08;;;19.10;34.60;;;;;;4992996;28;20454;-60
2024/01/13 05:24:47;;;;;;;1.45;1.33;;;19.10;34.60;;;;;;4993930;28;20018;-59
2024/01/13 05:27:14;;;;;;;1.50;1.20;;;19.10;34.60;;;;;;4992680;28;20061;-59
2024/01/13 05:29:40;;;;;;;1.63;1.20;;;19.10;34.60;;;;;;4997026;28;20038;-59
2024/01/13 05:32:06;;;;;;;1.60;1.20;;;19.10;34.60;;;;;;4998928;28;21490;-60
2024/01/13 05:34:31;;;;;;;1.48;1.30;;;19.10;34.60;;;;;;5001283;28;20032;-59
2024/01/13 05:36:57;;;;;;;1.45;1.30;;;19.10;34.60;;;;;;4996552;28;20022;-59
2024/01/13 05:39:23;;;;;;;1.20;1.10;;;19.10;34.60;;;;;;5005708;28;20045;-59
2024/01/13 05:41:49;;;;;;;1.45;1.10;;;19.10;34.60;;;;;;5001401;28;20041;-61
2024/01/13 05:44:14;;;;;;;1.23;1.00;;;19.10;34.60;;;;;;5002457;28;20025;-59
2024/01/13 05:46:40;;;;;;;1.38;1.10;;;19.10;34.60;;;;;;5001957;28;20022;-59
2024/01/13 05:49:07;;;;;;;1.73;1.30;;;19.00;34.50;;;;;;5004302;28;20030;-60
2024/01/13 05:51:33;;;;;;;1.30;1.10;;;19.00;34.60;;;;;;5004327;28;20034;-58
2024/01/13 05:53:59;;;;;;;1.10;1.00;;;19.00;34.60;;;;;;5007485;28;20018;-60
2024/01/13 05:56:25;;;;;;;1.27;1.17;;;19.10;34.60;;;;;;4988122;28;20110;-58
2024/01/13 05:58:52;;;;;;;1.67;1.20;;;19.00;34.60;;;;;;5010512;28;20030;-58
2024/01/13 06:01:18;;;;;;;1.10;1.00;;;19.00;34.60;;;;;;5006711;28;20369;-58
2024/01/13 06:03:44;;;;;;;1.35;1.25;;;19.00;34.60;;;;;;5002623;28;20030;-60
2024/01/13 06:06:10;;;;;;;1.20;1.10;;;19.00;34.60;;;;;;5002926;28;20037;-59
2024/01/13 06:08:36;;;;;;;1.10;1.00;;;19.00;34.60;;;;;;5002649;28;20484;-60
2024/01/13 06:11:01;;;;;;;1.85;1.20;;;19.00;34.60;;;;;;5003449;28;20120;-58
2024/01/13 06:13:28;;;;;;;1.10;1.00;;;19.00;34.60;;;;;;5001195;28;20108;-58
2024/01/13 06:15:54;;;;;;;1.08;0.98;;;19.00;34.60;;;;;;5004189;28;20084;-58
2024/01/13 06:18:20;;;;;;;1.10;1.00;;;19.00;34.60;;;;;;5002617;28;20388;-59
2024/01/13 06:20:46;;;;;;;1.17;1.08;;;19.00;34.70;;;;;;5000371;28;20034;-57
2024/01/13 06:23:12;;;;;;;1.33;1.10;;;19.00;34.70;;;;;;5002671;28;20026;-58
2024/01/13 06:25:37;;;;;;;2.10;1.20;;;19.00;34.70;;;;;;4998607;28;20070;-59
2024/01/13 06:28:03;;;;;;;1.13;0.90;;;19.00;34.70;;;;;;5002295;28;20177;-59
2024/01/13 06:30:29;;;;;;;1.10;1.00;;;19.00;34.70;;;;;;5003426;28;20033;-58
2024/01/13 06:32:55;;;;;;;1.52;1.10;;;19.00;34.70;;;;;;5002809;28;20041;-58
2024/01/13 06:35:21;;;;;;;1.83;1.00;;;19.00;34.70;;;;;;5005106;28;20041;-57
2024/01/13 06:37:46;;;;;;;1.10;0.98;;;19.00;34.70;;;;;;5005065;28;20338;-60
2024/01/13 06:40:12;;;;;;;1.00;0.90;;;19.00;34.70;;;;;;5006193;28;20022;-59
2024/01/13 06:42:38;;;;;;;1.10;0.85;;;19.00;34.70;;;;;;5003898;28;20453;-59
2024/01/13 06:45:05;;;;;;;1.10;1.00;;;19.00;34.70;;;;;;5000050;28;20030;-61
2024/01/13 06:47:31;;;;;;;1.30;0.90;;;18.90;34.70;;;;;;5004930;28;20033;-59
2024/01/13 06:49:57;;;;;;;1.30;1.00;;;19.00;34.70;;;;;;4999423;28;20099;-59
2024/01/13 06:52:23;;;;;;;1.30;1.08;;;19.00;34.70;;;;;;5000286;28;20026;-58
2024/01/13 06:54:49;;;;;;;1.30;1.00;;;19.00;34.70;;;;;;5001861;28;20033;-60
2024/01/13 06:57:16;;;;;;;1.85;1.00;;;19.00;34.70;;;;;;5003307;28;20421;-59
2024/01/13 06:59:43;;;;;;;1.17;1.05;;;19.00;34.80;;;;;;4998830;28;20083;-57
2024/01/13 07:02:10;;;;;;;1.00;0.90;;;19.00;34.80;;;;;;5002839;28;20041;-58
2024/01/13 07:04:40;;;;;;;0.73;0.70;;;19.00;34.90;;;;;;4997332;28;20022;-58
2024/01/13 07:07:05;;;;;;;1.38;0.85;;;19.00;35.00;;;;;;5001650;28;20109;-59
2024/01/13 07:09:31;;;;;;;1.23;1.08;;;19.00;35.00;;;;;;4998484;28;20101;-58
2024/01/13 07:11:58;;;;;;;1.27;1.13;;;18.90;34.90;;;;;;4999038;28;20025;-60
2024/01/13 07:14:23;;;;;;;1.20;1.10;;;18.90;34.90;;;;;;4998706;28;20120;-58
2024/01/13 07:16:49;;;;;;;1.60;1.20;;;18.90;34.90;;;;;;5004971;28;20445;-58
2024/01/13 07:19:15;;;;;;;1.33;1.17;;;19.00;35.00;;;;;;4998195;28;20037;-59
2024/01/13 07:21:42;;;;;;;1.85;1.40;;;18.90;34.90;;;;;;5001880;28;20046;-60
2024/01/13 07:24:11;;;;;;;1.25;1.10;;;18.90;34.90;;;;;;5003467;28;20026;-58
2024/01/13 07:26:40;;;;;;;2.05;1.48;;;18.90;34.90;;;;;;5002739;28;20144;-58
2024/01/13 07:29:06;;;;;;;1.60;1.40;;;18.90;34.90;;;;;;5003036;28;20103;-58
2024/01/13 07:31:32;;;;;;;1.70;1.50;;;18.90;34.90;;;;;;4999013;28;20069;-58
2024/01/13 07:33:57;;;;;;;2.47;1.70;;;18.90;34.90;;;;;;5003074;28;20022;-58
2024/01/13 07:36:23;;;;;;;2.13;1.60;;;18.90;35.00;;;;;;5000857;28;20121;-58
2024/01/13 07:38:49;;;;;;;1.75;1.48;;;18.90;35.00;;;;;;5006645;28;20022;-61
2024/01/13 07:41:15;;;;;;;1.90;1.70;;;18.90;35.00;;;;;;5003782;28;20033;-58
2024/01/13 07:43:40;;;;;;;2.20;1.65;;;18.90;35.00;;;;;;5001071;28;20113;-57
2024/01/13 07:46:06;;;;;;;1.83;1.48;;;18.90;35.00;;;;;;5004882;28;20034;-59
2024/01/13 07:48:32;;;;;;;1.95;1.75;;;18.90;35.00;;;;;;4998578;28;20033;-57
2024/01/13 07:50:58;;;;;;;1.90;1.70;;;18.90;35.10;;;;;;4994254;28;20389;-59
2024/01/13 07:53:23;;;;;;;1.90;1.70;;;18.90;35.10;;;;;;5003217;28;20053;-56
2024/01/13 07:55:49;;;;;;;2.05;1.85;;;18.90;35.10;;;;;;4994911;28;20499;-55
2024/01/13 07:58:15;;;;;;;3.13;2.33;;;18.90;35.10;;;;;;5004141;28;20097;-57
2024/01/13 08:00:40;;;;;;;2.10;1.90;;;18.90;35.10;;;;;;5003493;28;20030;-61
2024/01/13 08:03:06;;;;;;;2.53;2.28;;;18.90;35.10;;;;;;4999194;28;20114;-58
2024/01/13 08:05:32;;;;;;;2.65;2.10;;;18.90;35.20;;;;;;5002066;28;20110;-57
2024/01/13 08:07:58;;;;;;;2.35;2.15;;;18.90;35.20;;;;;;4999653;28;20030;-58
2024/01/13 08:10:24;;;;;;;3.15;2.55;;;18.90;35.20;;;;;;5003093;28;20030;-57
2024/01/13 08:12:49;;;;;;;2.33;2.08;;;18.90;35.20;;;;;;5001514;28;20065;-61
2024/01/13 08:15:15;;;;;;;2.38;1.98;;;18.90;35.20;;;;;;5000782;28;20425;-58
2024/01/13 08:17:41;;;;;;;3.10;2.00;;;18.90;35.30;;;;;;5002862;28;20462;-56
2024/01/13 08:20:09;;;;;;;2.58;2.17;;;18.90;35.30;;;;;;4997742;28;20053;-57
2024/01/13 08:22:35;;;;;;;3.08;1.95;;;18.90;35.30;;;;;;4998932;28;20045;-56
2024/01/13 08:25:01;;;;;;;2.25;1.98;;;18.90;35.30;;;;;;5001891;28;20026;-56
2024/01/13 08:27:26;;;;;;;2.60;2.10;;;18.90;35.30;;;;;;4996560;28;20022;-57
2024/01/13 08:29:52;;;;;;;2.20;2.00;;;18.90;35.40;;;;;;5003270;28;20421;-59
2024/01/13 08:32:18;;;;;;;2.25;2.05;;;18.90;35.40;;;;;;4993866;28;20121;-58
2024/01/13 08:34:44;;;;;;;2.70;2.13;;;18.90;35.40;;;;;;4997794;28;20031;-58
2024/01/13 08:37:09;;;;;;;2.42;2.20;;;18.90;35.40;;;;;;4994968;28;20023;-55
2024/01/13 08:39:35;;;;;;;2.47;2.25;;;18.90;35.40;;;;;;4997214;28;20050;-54
2024/01/13 08:42:01;;;;;;;2.53;2.10;;;18.90;35.40;;;;;;5000286;28;20389;-58
2024/01/13 08:44:27;;;;;;;2.13;1.92;;;18.90;35.40;;;;;;4998712;28;20041;-57
2024/01/13 08:46:53;;;;;;;2.17;1.92;;;18.90;35.40;;;;;;5004227;28;20409;-56
2024/01/13 08:49:19;;;;;;;2.20;1.92;;;18.90;35.40;;;;;;5002575;28;20169;-56
2024/01/13 08:51:45;;;;;;;2.38;2.17;;;18.90;35.50;;;;;;4998900;28;20450;-56
2024/01/13 08:54:11;;;;;;;2.17;1.80;;;18.90;35.50;;;;;;5000606;28;20041;-60
2024/01/13 08:56:36;;;;;;;2.20;1.88;;;18.90;35.60;;;;;;5001774;28;20555;-59
2024/01/13 08:59:02;;;;;;;1.95;1.73;;;18.90;35.60;;;;;;5002030;28;20023;-58
2024/01/13 09:01:28;;;;;;;2.50;1.67;;;18.90;35.60;;;;;;4997733;28;20034;-56
2024/01/13 09:03:54;;;;;;;2.28;1.60;;;19.00;35.90;;;;;;5001092;28;20445;-56
2024/01/13 09:06:20;;;;;;;1.52;1.40;;;19.00;36.00;;;;;;5006429;28;20026;-59
2024/01/13 09:08:46;;;;;;;1.20;1.00;;;19.10;36.00;;;;;;5008649;28;20026;-58
2024/01/13 09:11:11;;;;;;;1.20;1.00;;;19.20;36.00;;;;;;4999599;28;20022;-56
2024/01/13 09:13:37;;;;;;;1.15;0.90;;;19.20;36.00;;;;;;5001948;28;20050;-57
2024/01/13 09:16:03;;;;;;;1.27;1.15;;;19.30;35.90;;;;;;5009885;28;20033;-60
2024/01/13 09:18:29;;;;;;;1.80;1.20;;;19.30;35.80;;;;;;4999736;28;20030;-59
2024/01/13 09:20:55;;;;;;;1.30;1.05;;;19.40;35.80;;;;;;4999241;28;20049;-60
2024/01/13 09:23:21;;;;;;;1.20;1.10;;;19.40;35.70;;;;;;5006055;28;20112;-59
2024/01/13 09:25:46;;;;;;;1.13;1.00;;;19.50;35.60;;;;;;5000548;28;20084;-60
2024/01/13 09:28:12;;;;;;;1.10;1.00;;;19.50;35.50;;;;;;5000141;28;20350;-59
2024/01/13 09:30:39;;;;;;;1.48;0.70;;;19.60;35.50;;;;;;4997917;28;20054;-60
2024/01/13 09:33:05;;;;;;;0.93;0.70;;;19.60;35.40;;;;;;5004500;28;20038;-60
2024/01/13 09:35:31;;;;;;;1.30;1.00;;;19.70;35.30;;;;;;5004752;28;20072;-60
2024/01/13 09:37:58;;;;;;;0.98;0.73;;;19.70;35.20;;;;;;5000431;28;20017;-59
2024/01/13 09:40:25;;;;;;;1.35;0.95;;;19.80;35.20;;;;;;5010617;28;20029;-60
2024/01/13 09:43:11;;;;;;;0.90;0.80;;;19.80;35.20;;;;;;5005677;28;20049;-59
2024/01/13 09:45:38;;;;;;;1.45;0.82;;;19.80;35.10;;;;;;5004854;28;20030;-59
2024/01/13 09:48:08;;;;;;;3.55;0.85;;;19.90;35.10;;;;;;5002623;28;20026;-61
2024/01/13 09:50:36;;;;;;;0.90;0.70;;;19.90;35.00;;;;;;5004091;28;20040;-60
2024/01/13 09:53:07;;;;;;;0.73;0.70;;;19.90;34.90;;;;;;4999827;28;20033;-60
2024/01/13 09:55:35;;;;;;;0.90;0.70;;;20.00;34.80;;;;;;4986952;28;20030;-60
2024/01/13 09:58:01;;;;;;;1.30;0.80;;;20.00;34.80;;;;;;4999781;28;20033;-60
2024/01/13 10:00:30;;;;;;;1.00;0.80;;;20.10;34.80;;;;;;4997606;28;20041;-61
2024/01/13 10:02:57;;;;;;;2.13;0.68;;;20.10;35.30;;;;;;5004401;28;20376;-61
2024/01/13 10:05:24;;;;;;;0.65;0.57;;;20.10;34.60;;;;;;5012815;28;20539;-61
2024/01/13 10:07:53;;;;;;;0.73;0.55;;;20.20;34.70;;;;;;4999148;28;20444;-61
2024/01/13 10:10:19;;;;;;;0.63;0.60;;;20.20;34.60;;;;;;5001143;28;20054;-60
2024/01/13 10:12:45;;;;;;;1.67;0.80;;;20.20;34.60;;;;;;5002656;28;20472;-60
2024/01/13 10:15:15;;;;;;;0.65;0.43;;;20.20;34.50;;;;;;5005175;28;20049;-61
2024/01/13 10:17:41;;;;;;;1.45;0.95;;;20.30;34.50;;;;;;5004501;28;20474;-60
2024/01/13 10:20:13;;;;;;;0.55;0.50;;;20.30;34.50;;;;;;5002495;28;20035;-60
2024/01/13 10:22:41;;;;;;;0.90;0.70;;;20.30;34.40;;;;;;5001096;28;20420;-60
2024/01/13 10:25:07;;;;;;;0.50;0.50;;;20.30;34.30;;;;;;4997430;28;20069;-61
2024/01/13 10:27:35;;;;;;;0.82;0.60;;;20.40;34.40;;;;;;5002136;28;20074;-60
2024/01/13 10:30:06;;;;;;;1.10;0.60;;;20.30;34.30;;;;;;4997019;28;20030;-59
2024/01/13 10:32:32;;;;;;;0.40;0.40;;;20.40;34.30;;;;;;4997054;28;20430;-60
2024/01/13 10:34:57;;;;;;;0.65;0.55;;;20.40;34.30;;;;;;4996100;28;20026;-61
2024/01/13 10:37:26;;;;;;;0.68;0.52;;;20.40;34.30;;;;;;4994622;28;20057;-60
2024/01/13 10:39:52;;;;;;;0.70;0.50;;;20.40;34.20;;;;;;4995639;28;20030;-59
2024/01/13 10:42:22;;;;;;;0.95;0.60;;;20.40;34.20;;;;;;4995498;28;20122;-60
2024/01/13 10:44:55;;;;;;;0.93;0.60;;;20.40;34.20;;;;;;5000845;28;20025;-59
2024/01/13 10:47:25;;;;;;;0.90;0.60;;;20.40;34.10;;;;;;5006268;28;20452;-60
2024/01/13 10:49:51;;;;;;;0.75;0.47;;;20.40;34.10;;;;;;4999916;28;20420;-61
2024/01/13 10:52:26;;;;;;;0.52;0.52;;;20.40;34.10;;;;;;5003182;28;20026;-60
2024/01/13 10:54:54;;;;;;;1.13;0.70;;;20.40;34.10;;;;;;5000358;28;20063;-60
2024/01/13 10:57:21;;;;;;;0.70;0.60;;;20.40;34.10;;;;;;5001018;28;20054;-61
2024/01/13 10:59:50;;;;;;;0.50;0.40;;;20.40;34.10;;;;;;5006388;28;20117;-60
2024/01/13 11:02:16;;;;;;;0.93;0.65;;;20.40;34.10;;;;;;5002949;28;20049;-62
2024/01/13 11:04:44;;;;;;;0.77;0.60;;;20.40;34.10;;;;;;4999199;28;20026;-60
2024/01/13 11:07:09;;;;;;;0.70;0.52;;;20.50;34.10;;;;;;4995993;28;20041;-62
2024/01/13 11:09:37;;;;;;;0.70;0.60;;;20.50;34.10;;;;;;4995541;28;20026;-60
2024/01/13 11:12:17;;;;;;;1.02;0.63;;;20.50;34.00;;;;;;4995300;28;20113;-60
2024/01/13 11:15:22;;;;;;;0.73;0.70;;;20.60;34.00;;;;;;4995364;28;20042;-60
2024/01/13 11:17:48;;;;;;;0.65;0.63;;;20.60;33.90;;;;;;4973645;28;20035;-59
2024/01/13 11:20:19;;;;;;;0.95;0.70;;;20.60;33.90;;;;;;4995282;28;20038;-60
2024/01/13 11:22:57;;;;;;;0.98;0.85;;;20.60;33.90;;;;;;4992996;28;20100;-60
2024/01/13 11:25:24;;;;;;;1.30;1.00;;;20.60;34.40;;;;;;4997508;28;20466;-59
2024/01/13 11:27:59;;;;;;;1.63;0.60;;;20.70;33.80;;;;;;5001974;28;20026;-59
2024/01/13 11:30:51;;;;;;;0.80;0.80;;;20.70;33.80;;;;;;5001661;28;20436;-60
2024/01/13 11:33:17;;;;;;;1.30;0.80;;;20.70;33.70;;;;;;4988369;28;20117;-59
2024/01/13 11:35:48;;;;;;;1.25;0.90;;;20.70;33.70;;;;;;4998984;28;20113;-60
2024/01/13 11:38:17;;;;;;;1.20;0.80;;;20.80;33.70;;;;;;4994962;28;20044;-59
2024/01/13 11:40:46;;;;;;;1.23;0.80;;;20.80;33.60;;;;;;4998989;28;20037;-58
2024/01/13 11:43:23;;;;;;;1.00;0.90;;;20.70;33.60;;;;;;5001308;28;20144;-60
2024/01/13 11:45:51;;;;;;;1.00;0.90;;;20.80;33.50;;;;;;5005790;28;20125;-62
2024/01/13 11:48:40;;;;;;;1.30;0.80;;;20.80;33.50;;;;;;4995797;28;20041;-61
2024/01/13 11:51:13;;;;;;;2.03;1.10;;;20.80;33.60;;;;;;5003816;28;20038;-60
2024/01/13 11:53:43;;;;;;;1.77;1.05;;;20.90;33.90;;;;;;4994765;28;20030;-66
2024/01/13 11:56:11;;;;;;;0.90;0.80;;;21.00;34.00;;;;;;4983045;28;20409;-58
2024/01/13 11:58:38;;;;;;;1.08;0.90;;;21.10;34.00;;;;;;4996390;28;20022;-56
2024/01/13 12:01:09;;;;;;;1.20;1.00;;;21.20;33.90;;;;;;5004785;28;20046;-59
2024/01/13 12:03:37;;;;;;;2.05;1.00;;;21.20;33.80;;;;;;4999742;28;20026;-60
2024/01/13 12:06:03;;;;;;;1.02;0.93;;;21.30;33.70;;;;;;4996045;28;20080;-52
2024/01/13 12:08:29;;;;;;;1.80;1.30;;;21.40;33.60;;;;;;4998731;28;20022;-57
2024/01/13 12:10:55;;;;;;;1.73;1.20;;;21.30;33.60;;;;;;4994018;28;20446;-56
2024/01/13 12:13:22;;;;;;;1.45;1.17;;;21.30;33.50;;;;;;4993821;28;20018;-56
2024/01/13 12:15:48;;;;;;;1.52;1.40;;;21.30;33.40;;;;;;4993670;28;20033;-58
2024/01/13 12:18:21;;;;;;;1.83;1.40;;;21.20;33.30;;;;;;4993450;28;20353;-57
2024/01/13 12:20:57;;;;;;;1.77;1.23;;;21.20;33.20;;;;;;5008183;28;20118;-55
2024/01/13 12:23:23;;;;;;;1.42;1.33;;;21.20;33.20;;;;;;4995374;28;20101;-56
2024/01/13 12:25:51;;;;;;;2.08;1.65;;;21.20;33.20;;;;;;4995461;28;20030;-57
2024/01/13 12:28:18;;;;;;;2.88;1.42;;;21.20;33.10;;;;;;4991716;28;20105;-55
2024/01/13 12:30:51;;;;;;;2.05;1.75;;;21.10;33.10;;;;;;4994290;28;20038;-58
2024/01/13 12:33:17;;;;;;;2.25;1.30;;;21.10;33.00;;;;;;4985649;28;20061;-59
2024/01/13 12:35:43;;;;;;;1.73;1.50;;;21.10;33.00;;;;;;5000764;28;20367;-55
2024/01/13 12:38:10;;;;;;;1.83;1.40;;;21.10;33.00;;;;;;5005170;28;20168;-58
2024/01/13 12:40:36;;;;;;;2.03;1.70;;;21.10;33.00;;;;;;5005753;28;20446;-58
2024/01/13 12:43:04;;;;;;;2.15;1.50;;;21.00;33.00;;;;;;5003112;28;20050;-58
2024/01/13 12:45:32;;;;;;;1.80;1.35;;;21.00;33.10;;;;;;5001513;28;20107;-59